createdAt,value
2023-01-08T00:00:06.964Z,76.55
2023-01-08T00:01:14.509Z,76.70
2023-01-08T00:02:17.342Z,76.44
2023-01-08T00:03:19.719Z,76.09
2023-01-08T00:04:22.148Z,75.89
2023-01-08T00:05:24.363Z,76.02
2023-01-08T00:06:26.901Z,75.69
2023-01-08T00:07:29.293Z,75.86
2023-01-08T00:08:31.860Z,75.64
2023-01-08T00:09:34.013Z,75.83
2023-01-08T00:10:39.675Z,75.80
2023-01-08T00:11:42.999Z,75.78
2023-01-08T00:12:45.472Z,75.90
2023-01-08T00:13:47.671Z,75.32
2023-01-08T00:14:49.886Z,75.32
2023-01-08T00:15:52.885Z,75.35
2023-01-08T00:16:55.144Z,75.00
2023-01-08T00:17:57.965Z,75.42
2023-01-08T00:19:00.151Z,75.37
2023-01-08T00:20:02.331Z,75.69
2023-01-08T00:21:05.711Z,75.67
2023-01-08T00:22:07.903Z,75.64
2023-01-08T00:23:17.272Z,75.50
2023-01-08T00:24:20.746Z,75.52
2023-01-08T00:25:22.950Z,75.94
2023-01-08T00:26:25.182Z,75.95
2023-01-08T00:27:28.081Z,76.06
2023-01-08T00:28:30.374Z,76.09
2023-01-08T00:29:32.777Z,76.37
2023-01-08T00:30:35.676Z,76.38
2023-01-08T00:31:37.838Z,76.42
2023-01-08T00:32:40.179Z,76.40
2023-01-08T00:33:42.623Z,76.22
2023-01-08T00:34:45.038Z,76.66
2023-01-08T00:35:47.492Z,76.75
2023-01-08T00:36:49.655Z,76.72
2023-01-08T00:37:52.423Z,76.72
2023-01-08T00:38:54.572Z,76.56
2023-01-08T00:39:56.766Z,76.73
2023-01-08T00:40:59.311Z,76.89
2023-01-08T00:42:01.512Z,76.95
2023-01-08T00:43:04.406Z,76.81
2023-01-08T00:44:06.788Z,76.55
2023-01-08T00:45:11.028Z,76.77
2023-01-08T00:46:13.430Z,76.79
2023-01-08T00:47:15.584Z,77.10
2023-01-08T00:48:18.175Z,77.06
2023-01-08T00:49:20.322Z,76.93
2023-01-08T00:50:23.659Z,76.88
2023-01-08T00:51:26.350Z,76.91
2023-01-08T00:52:29.073Z,77.12
2023-01-08T00:53:31.511Z,77.54
2023-01-08T00:54:33.691Z,77.51
2023-01-08T00:55:36.045Z,77.51
2023-01-08T00:56:38.406Z,77.58
2023-01-08T00:57:41.687Z,77.35
2023-01-08T00:58:44.025Z,77.27
2023-01-08T00:59:46.239Z,77.53
2023-01-08T01:00:48.615Z,77.66
2023-01-08T01:01:52.817Z,77.60
2023-01-08T01:02:55.136Z,77.80
2023-01-08T01:03:57.509Z,77.87
2023-01-08T01:04:59.687Z,77.93
2023-01-08T01:06:03.273Z,78.13
2023-01-08T01:07:07.226Z,77.83
2023-01-08T01:08:09.746Z,77.94
2023-01-08T01:09:12.017Z,77.87
2023-01-08T01:10:16.263Z,78.24
2023-01-08T01:11:24.486Z,78.34
2023-01-08T01:12:26.936Z,78.11
2023-01-08T01:13:29.263Z,78.29
2023-01-08T01:14:31.520Z,78.17
2023-01-08T01:15:33.948Z,78.37
2023-01-08T01:16:36.514Z,78.33
2023-01-08T01:17:40.747Z,78.54
2023-01-08T01:18:43.256Z,78.31
2023-01-08T01:19:45.596Z,78.63
2023-01-08T01:20:47.968Z,78.47
2023-01-08T01:21:50.129Z,78.46
2023-01-08T01:22:52.503Z,79.19
2023-01-08T01:23:57.158Z,79.00
2023-01-08T01:24:59.515Z,79.14
2023-01-08T01:26:01.644Z,79.12
2023-01-08T01:27:04.180Z,79.16
2023-01-08T01:28:06.325Z,79.08
2023-01-08T01:29:08.886Z,78.74
2023-01-08T01:30:11.406Z,78.57
2023-01-08T01:31:13.765Z,78.67
2023-01-08T01:32:16.184Z,78.35
2023-01-08T01:33:18.353Z,78.30
2023-01-08T01:34:20.710Z,78.45
2023-01-08T01:35:22.849Z,78.43
2023-01-08T01:36:25.814Z,78.36
2023-01-08T01:37:28.177Z,78.11
2023-01-08T01:38:30.841Z,78.67
2023-01-08T01:39:33.041Z,78.58
2023-01-08T01:40:35.217Z,78.63
2023-01-08T01:41:40.031Z,78.57
2023-01-08T01:42:43.786Z,78.70
2023-01-08T01:43:45.962Z,78.67
2023-01-08T01:44:48.346Z,78.75
2023-01-08T01:45:50.537Z,78.64
2023-01-08T01:46:52.781Z,78.52
2023-01-08T01:48:02.298Z,78.55
2023-01-08T01:49:25.043Z,78.72
2023-01-08T01:50:51.908Z,78.53
2023-01-08T01:52:02.280Z,78.67
2023-01-08T01:53:19.304Z,78.53
2023-01-08T01:54:22.976Z,78.61
2023-01-08T01:55:26.957Z,78.85
2023-01-08T01:56:30.989Z,78.87
2023-01-08T01:57:33.541Z,78.99
2023-01-08T01:58:36.176Z,78.92
2023-01-08T01:59:38.731Z,79.20
2023-01-08T02:00:41.830Z,79.35
2023-01-08T02:01:44.232Z,79.24
2023-01-08T02:02:46.813Z,79.13
2023-01-08T02:03:49.012Z,79.17
2023-01-08T02:04:51.741Z,79.22
2023-01-08T02:06:21.443Z,79.18
2023-01-08T02:07:35.803Z,79.37
2023-01-08T02:08:56.094Z,79.48
2023-01-08T02:10:21.584Z,79.17
2023-01-08T02:11:40.307Z,79.30
2023-01-08T02:12:47.814Z,79.29
2023-01-08T02:14:06.314Z,79.25
2023-01-08T02:15:53.140Z,79.29
2023-01-08T02:17:09.589Z,79.13
2023-01-08T02:18:27.418Z,79.30
2023-01-08T02:19:57.576Z,79.19
2023-01-08T02:21:03.703Z,79.17
2023-01-08T02:22:15.411Z,78.87
2023-01-08T02:23:27.761Z,78.81
2023-01-08T02:24:46.714Z,78.73
2023-01-08T02:26:00.983Z,78.75
2023-01-08T02:27:06.806Z,78.56
2023-01-08T02:28:13.468Z,78.85
2023-01-08T02:29:23.913Z,78.97
2023-01-08T02:30:26.902Z,79.05
2023-01-08T02:31:30.649Z,79.33
2023-01-08T02:32:36.227Z,79.37
2023-01-08T02:33:38.625Z,79.61
2023-01-08T02:34:40.799Z,79.70
2023-01-08T02:35:52.100Z,79.92
2023-01-08T02:36:56.320Z,79.85
2023-01-08T02:37:58.581Z,79.74
2023-01-08T02:39:15.284Z,79.43
2023-01-08T02:40:33.685Z,79.24
2023-01-08T02:42:02.085Z,79.09
2023-01-08T02:43:12.338Z,79.17
2023-01-08T02:44:21.830Z,79.43
2023-01-08T02:45:41.148Z,79.07
2023-01-08T02:46:44.679Z,79.48
2023-01-08T02:48:07.601Z,79.41
2023-01-08T02:49:13.916Z,79.08
2023-01-08T02:50:25.976Z,79.00
2023-01-08T02:51:34.040Z,78.58
2023-01-08T02:52:45.570Z,78.77
2023-01-08T02:53:51.403Z,78.88
2023-01-08T02:54:55.627Z,78.96
2023-01-08T02:56:05.494Z,78.72
2023-01-08T02:57:13.866Z,78.65
2023-01-08T02:58:17.086Z,78.66
2023-01-08T02:59:20.971Z,78.94
2023-01-08T03:00:23.791Z,78.89
2023-01-08T03:01:27.991Z,79.38
2023-01-08T03:02:34.698Z,79.75
2023-01-08T03:03:41.663Z,79.48
2023-01-08T03:04:52.966Z,79.76
2023-01-08T03:06:02.116Z,79.71
2023-01-08T03:07:04.288Z,79.73
2023-01-08T03:08:06.792Z,79.63
2023-01-08T03:09:10.256Z,79.65
2023-01-08T03:10:12.737Z,79.52
2023-01-08T03:11:18.241Z,79.25
2023-01-08T03:12:27.035Z,79.17
2023-01-08T03:14:06.253Z,79.11
2023-01-08T03:15:13.219Z,79.45
2023-01-08T03:16:21.636Z,79.35
2023-01-08T03:17:30.854Z,79.60
2023-01-08T03:18:38.088Z,79.46
2023-01-08T03:19:54.391Z,79.33
2023-01-08T03:20:56.593Z,79.39
2023-01-08T03:22:02.442Z,79.28
2023-01-08T03:23:08.363Z,79.21
2023-01-08T03:24:13.771Z,79.24
2023-01-08T03:25:20.337Z,79.12
2023-01-08T03:26:27.045Z,79.21
2023-01-08T03:27:33.697Z,79.27
2023-01-08T03:28:46.168Z,79.24
2023-01-08T03:29:53.640Z,79.09
2023-01-08T03:30:57.573Z,78.91
2023-01-08T03:32:07.418Z,78.94
2023-01-08T03:33:12.666Z,78.93
2023-01-08T03:34:16.353Z,78.83
2023-01-08T03:35:22.976Z,78.83
2023-01-08T03:36:29.169Z,78.62
2023-01-08T03:37:39.607Z,78.64
2023-01-08T03:38:47.404Z,78.54
2023-01-08T03:39:59.349Z,78.67
2023-01-08T03:41:07.237Z,78.85
2023-01-08T03:42:13.366Z,78.85
2023-01-08T03:43:15.792Z,78.94
2023-01-08T03:44:18.154Z,78.68
2023-01-08T03:45:23.134Z,78.74
2023-01-08T03:46:31.637Z,78.70
2023-01-08T03:47:43.093Z,78.89
2023-01-08T03:48:46.416Z,78.57
2023-01-08T03:49:50.456Z,78.39
2023-01-08T03:50:53.247Z,78.46
2023-01-08T03:51:55.470Z,78.12
2023-01-08T03:53:00.663Z,78.45
2023-01-08T03:54:03.382Z,78.39
2023-01-08T03:55:06.200Z,78.68
2023-01-08T03:56:08.564Z,78.78
2023-01-08T03:57:10.815Z,78.58
2023-01-08T03:58:13.496Z,78.24
2023-01-08T03:59:16.686Z,78.22
2023-01-08T04:00:19.355Z,78.03
2023-01-08T04:01:21.628Z,78.17
2023-01-08T04:02:24.000Z,78.03
2023-01-08T04:03:26.556Z,77.93
2023-01-08T04:04:28.894Z,77.85
2023-01-08T04:05:31.277Z,77.85
2023-01-08T04:06:33.526Z,77.84
2023-01-08T04:07:35.741Z,77.67
2023-01-08T04:08:38.101Z,77.50
2023-01-08T04:09:40.268Z,77.46
2023-01-08T04:10:42.612Z,77.46
2023-01-08T04:11:44.788Z,77.39
2023-01-08T04:12:46.937Z,77.23
2023-01-08T04:13:49.285Z,77.27
2023-01-08T04:14:51.700Z,77.47
2023-01-08T04:15:54.106Z,77.25
2023-01-08T04:16:56.531Z,77.05
2023-01-08T04:17:58.712Z,77.09
2023-01-08T04:19:00.904Z,76.74
2023-01-08T04:20:03.503Z,76.87
2023-01-08T04:21:06.068Z,76.76
2023-01-08T04:22:11.082Z,76.74
2023-01-08T04:23:14.074Z,76.73
2023-01-08T04:24:16.259Z,76.61
2023-01-08T04:25:19.340Z,76.56
2023-01-08T04:26:21.680Z,76.22
2023-01-08T04:27:23.846Z,76.21
2023-01-08T04:28:26.253Z,76.23
2023-01-08T04:29:28.556Z,76.18
2023-01-08T04:30:31.172Z,76.48
2023-01-08T04:31:33.527Z,76.42
2023-01-08T04:32:35.685Z,75.97
2023-01-08T04:33:38.145Z,76.03
2023-01-08T04:34:40.303Z,75.91
2023-01-08T04:35:42.676Z,75.78
2023-01-08T04:36:45.022Z,75.81
2023-01-08T04:37:47.199Z,76.08
2023-01-08T04:38:49.545Z,76.27
2023-01-08T04:39:51.762Z,76.29
2023-01-08T04:40:58.684Z,76.27
2023-01-08T04:42:01.286Z,76.49
2023-01-08T04:43:03.458Z,76.65
2023-01-08T04:44:05.830Z,76.21
2023-01-08T04:45:08.488Z,76.04
2023-01-08T04:46:11.004Z,75.84
2023-01-08T04:47:13.480Z,76.15
2023-01-08T04:48:15.720Z,76.00
2023-01-08T04:49:18.133Z,75.72
2023-01-08T04:50:20.305Z,75.46
2023-01-08T04:51:23.401Z,75.10
2023-01-08T04:52:25.620Z,75.14
2023-01-08T04:53:29.010Z,74.96
2023-01-08T04:54:31.170Z,74.77
2023-01-08T04:55:34.333Z,74.95
2023-01-08T04:56:36.724Z,75.11
2023-01-08T04:57:38.933Z,75.44
2023-01-08T04:58:41.091Z,75.67
2023-01-08T04:59:43.244Z,75.84
2023-01-08T05:00:45.664Z,76.07
2023-01-08T05:01:48.698Z,76.14
2023-01-08T05:02:51.072Z,76.19
2023-01-08T05:03:59.626Z,76.02
2023-01-08T05:05:01.783Z,76.22
2023-01-08T05:06:04.539Z,76.16
2023-01-08T05:07:08.051Z,76.19
2023-01-08T05:08:10.219Z,76.21
2023-01-08T05:09:12.586Z,75.84
2023-01-08T05:10:14.781Z,75.71
2023-01-08T05:11:17.168Z,75.84
2023-01-08T05:12:19.349Z,75.72
2023-01-08T05:13:21.498Z,75.73
2023-01-08T05:14:23.913Z,75.95
2023-01-08T05:15:26.139Z,76.12
2023-01-08T05:16:28.515Z,76.10
2023-01-08T05:17:30.873Z,76.24
2023-01-08T05:18:33.353Z,76.05
2023-01-08T05:19:37.609Z,75.92
2023-01-08T05:20:40.440Z,75.74
2023-01-08T05:21:43.012Z,75.95
2023-01-08T05:22:45.369Z,76.05
2023-01-08T05:23:48.147Z,75.94
2023-01-08T05:24:50.326Z,75.95
2023-01-08T05:25:52.495Z,76.12
2023-01-08T05:26:54.841Z,75.82
2023-01-08T05:27:57.422Z,75.88
2023-01-08T05:28:59.645Z,75.57
2023-01-08T05:30:01.814Z,75.48
2023-01-08T05:31:05.245Z,75.30
2023-01-08T05:32:15.196Z,75.54
2023-01-08T05:33:17.375Z,75.65
2023-01-08T05:34:19.757Z,75.54
2023-01-08T05:35:21.944Z,75.84
2023-01-08T05:36:24.272Z,75.94
2023-01-08T05:37:26.443Z,75.80
2023-01-08T05:38:28.872Z,75.64
2023-01-08T05:39:31.184Z,75.84
2023-01-08T05:40:33.601Z,75.82
2023-01-08T05:41:35.992Z,75.76
2023-01-08T05:42:38.255Z,75.74
2023-01-08T05:43:40.618Z,75.58
2023-01-08T05:44:42.991Z,75.63
2023-01-08T05:45:45.156Z,75.61
2023-01-08T05:46:47.513Z,75.74
2023-01-08T05:47:49.652Z,75.76
2023-01-08T05:48:51.813Z,75.88
2023-01-08T05:49:54.337Z,75.85
2023-01-08T05:50:56.672Z,75.44
2023-01-08T05:51:58.851Z,75.38
2023-01-08T05:53:01.134Z,75.55
2023-01-08T05:54:03.419Z,75.62
2023-01-08T05:55:06.449Z,75.25
2023-01-08T05:56:11.644Z,75.57
2023-01-08T05:57:13.997Z,75.66
2023-01-08T05:58:19.117Z,75.54
2023-01-08T05:59:21.340Z,75.88
2023-01-08T06:00:26.572Z,75.75
2023-01-08T06:01:29.140Z,75.51
2023-01-08T06:02:31.673Z,75.24
2023-01-08T06:03:33.897Z,74.98
2023-01-08T06:04:36.167Z,75.17
2023-01-08T06:05:38.781Z,75.42
2023-01-08T06:06:41.006Z,75.40
2023-01-08T06:07:43.157Z,75.33
2023-01-08T06:08:45.508Z,75.07
2023-01-08T06:09:47.716Z,74.80
2023-01-08T06:10:50.328Z,74.71
2023-01-08T06:11:53.883Z,74.90
2023-01-08T06:12:56.097Z,75.02
2023-01-08T06:13:58.251Z,74.93
2023-01-08T06:15:00.455Z,74.70
2023-01-08T06:16:02.943Z,74.76
2023-01-08T06:17:05.230Z,74.54
2023-01-08T06:18:07.688Z,74.48
2023-01-08T06:19:11.306Z,74.52
2023-01-08T06:20:13.496Z,74.57
2023-01-08T06:21:16.035Z,74.50
2023-01-08T06:22:18.236Z,74.53
2023-01-08T06:23:20.466Z,74.71
2023-01-08T06:24:22.829Z,74.75
2023-01-08T06:25:25.257Z,74.95
2023-01-08T06:26:27.643Z,74.60
2023-01-08T06:27:29.871Z,74.75
2023-01-08T06:28:32.673Z,74.69
2023-01-08T06:29:34.860Z,74.45
2023-01-08T06:30:37.418Z,74.68
2023-01-08T06:31:39.624Z,74.78
2023-01-08T06:32:42.011Z,74.78
2023-01-08T06:33:44.236Z,74.96
2023-01-08T06:34:46.451Z,74.91
2023-01-08T06:35:49.304Z,74.77
2023-01-08T06:36:51.564Z,74.62
2023-01-08T06:37:57.064Z,74.37
2023-01-08T06:38:59.489Z,74.44
2023-01-08T06:40:01.754Z,74.38
2023-01-08T06:41:10.489Z,74.33
2023-01-08T06:42:12.730Z,74.23
2023-01-08T06:43:15.452Z,74.40
2023-01-08T06:44:17.912Z,74.20
2023-01-08T06:45:20.688Z,74.27
2023-01-08T06:46:23.333Z,74.34
2023-01-08T06:47:25.589Z,74.51
2023-01-08T06:48:27.875Z,74.40
2023-01-08T06:49:30.243Z,74.83
2023-01-08T06:50:34.027Z,74.88
2023-01-08T06:51:36.724Z,74.62
2023-01-08T06:52:39.141Z,74.63
2023-01-08T06:53:41.372Z,74.79
2023-01-08T06:54:43.726Z,74.67
2023-01-08T06:55:45.896Z,74.81
2023-01-08T06:56:53.976Z,74.97
2023-01-08T06:57:58.092Z,74.55
2023-01-08T06:59:00.280Z,74.27
2023-01-08T07:00:02.784Z,74.14
2023-01-08T07:01:05.345Z,74.19
2023-01-08T07:02:13.963Z,74.02
2023-01-08T07:03:16.310Z,74.11
2023-01-08T07:04:19.043Z,74.28
2023-01-08T07:05:21.879Z,74.29
2023-01-08T07:06:25.383Z,74.31
2023-01-08T07:07:27.564Z,74.10
2023-01-08T07:08:30.115Z,74.12
2023-01-08T07:09:34.190Z,74.25
2023-01-08T07:10:36.552Z,74.08
2023-01-08T07:11:39.127Z,74.00
2023-01-08T07:12:41.295Z,74.20
2023-01-08T07:13:43.871Z,74.38
2023-01-08T07:14:46.082Z,74.31
2023-01-08T07:15:48.372Z,74.38
2023-01-08T07:16:50.949Z,74.56
2023-01-08T07:17:53.214Z,74.48
2023-01-08T07:18:55.573Z,74.51
2023-01-08T07:19:57.737Z,74.51
2023-01-08T07:20:59.991Z,74.67
2023-01-08T07:22:02.660Z,74.42
2023-01-08T07:23:10.837Z,74.03
2023-01-08T07:24:13.221Z,74.00
2023-01-08T07:25:15.462Z,74.15
2023-01-08T07:26:18.024Z,73.92
2023-01-08T07:27:20.595Z,73.74
2023-01-08T07:28:22.807Z,73.77
2023-01-08T07:29:25.014Z,73.46
2023-01-08T07:30:30.131Z,73.78
2023-01-08T07:31:33.097Z,73.60
2023-01-08T07:32:35.738Z,73.65
2023-01-08T07:33:37.907Z,73.65
2023-01-08T07:34:40.081Z,73.44
2023-01-08T07:35:42.409Z,73.42
2023-01-08T07:36:44.862Z,73.43
2023-01-08T07:37:47.382Z,73.56
2023-01-08T07:38:50.037Z,73.56
2023-01-08T07:39:53.104Z,73.63
2023-01-08T07:40:58.148Z,73.81
2023-01-08T07:42:00.323Z,73.55
2023-01-08T07:43:04.407Z,73.44
2023-01-08T07:44:06.777Z,73.28
2023-01-08T07:45:09.173Z,73.28
2023-01-08T07:46:11.549Z,73.29
2023-01-08T07:47:13.943Z,73.23
2023-01-08T07:48:16.379Z,72.94
2023-01-08T07:49:18.823Z,73.04
2023-01-08T07:50:21.025Z,72.84
2023-01-08T07:51:23.661Z,72.76
2023-01-08T07:52:25.995Z,72.53
2023-01-08T07:53:28.474Z,72.47
2023-01-08T07:54:30.833Z,72.36
2023-01-08T07:55:33.094Z,72.58
2023-01-08T07:56:35.463Z,72.79
2023-01-08T07:57:37.858Z,72.56
2023-01-08T07:58:40.091Z,72.54
2023-01-08T07:59:42.465Z,72.71
2023-01-08T08:00:44.708Z,72.84
2023-01-08T08:01:47.001Z,72.73
2023-01-08T08:02:49.936Z,72.85
2023-01-08T08:03:52.566Z,72.72
2023-01-08T08:04:54.899Z,72.70
2023-01-08T08:05:57.078Z,72.53
2023-01-08T08:06:59.345Z,72.51
2023-01-08T08:08:01.961Z,72.48
2023-01-08T08:09:04.174Z,72.65
2023-01-08T08:10:06.791Z,72.64
2023-01-08T08:11:09.293Z,72.85
2023-01-08T08:12:11.581Z,72.78
2023-01-08T08:13:14.119Z,72.75
2023-01-08T08:14:16.334Z,72.65
2023-01-08T08:15:18.828Z,72.56
2023-01-08T08:16:21.345Z,72.49
2023-01-08T08:17:23.803Z,72.35
2023-01-08T08:18:26.405Z,71.93
2023-01-08T08:19:28.606Z,71.59
2023-01-08T08:20:30.861Z,71.65
2023-01-08T08:21:33.234Z,71.65
2023-01-08T08:22:35.387Z,71.79
2023-01-08T08:23:37.816Z,71.59
2023-01-08T08:24:40.023Z,71.72
2023-01-08T08:25:42.956Z,71.97
2023-01-08T08:26:45.147Z,71.96
2023-01-08T08:27:47.382Z,71.92
2023-01-08T08:28:50.070Z,71.95
2023-01-08T08:29:52.246Z,71.95
2023-01-08T08:30:54.431Z,72.02
2023-01-08T08:31:56.701Z,71.94
2023-01-08T08:33:01.266Z,71.90
2023-01-08T08:34:03.732Z,71.96
2023-01-08T08:35:06.622Z,71.95
2023-01-08T08:36:09.417Z,72.21
2023-01-08T08:37:11.668Z,72.07
2023-01-08T08:38:14.273Z,71.94
2023-01-08T08:39:17.024Z,72.00
2023-01-08T08:40:19.416Z,71.50
2023-01-08T08:41:21.608Z,71.65
2023-01-08T08:42:23.741Z,71.81
2023-01-08T08:43:26.294Z,71.91
2023-01-08T08:44:28.475Z,72.09
2023-01-08T08:45:30.660Z,71.97
2023-01-08T08:46:33.082Z,71.84
2023-01-08T08:47:36.444Z,71.49
2023-01-08T08:48:38.977Z,71.14
2023-01-08T08:49:41.402Z,71.24
2023-01-08T08:50:43.837Z,71.13
2023-01-08T08:51:46.207Z,70.80
2023-01-08T08:52:49.066Z,70.81
2023-01-08T08:53:51.458Z,70.90
2023-01-08T08:54:53.674Z,71.14
2023-01-08T08:55:59.088Z,71.14
2023-01-08T08:57:01.444Z,70.63
2023-01-08T08:58:12.933Z,70.75
2023-01-08T08:59:15.500Z,70.48
2023-01-08T09:00:17.790Z,70.46
2023-01-08T09:01:20.073Z,70.28
2023-01-08T09:02:23.132Z,70.87
2023-01-08T09:03:25.461Z,71.10
2023-01-08T09:04:34.052Z,71.17
2023-01-08T09:05:37.162Z,71.34
2023-01-08T09:06:39.330Z,71.12
2023-01-08T09:07:41.704Z,71.10
2023-01-08T09:08:44.162Z,71.11
2023-01-08T09:09:46.524Z,71.10
2023-01-08T09:10:48.808Z,70.90
2023-01-08T09:11:51.140Z,70.95
2023-01-08T09:12:53.992Z,70.56
2023-01-08T09:13:56.412Z,70.04
2023-01-08T09:14:58.588Z,69.90
2023-01-08T09:16:01.196Z,70.04
2023-01-08T09:17:03.493Z,70.24
2023-01-08T09:18:05.961Z,69.97
2023-01-08T09:19:09.700Z,69.81
2023-01-08T09:20:12.353Z,69.53
2023-01-08T09:21:14.758Z,69.37
2023-01-08T09:22:17.019Z,69.30
2023-01-08T09:23:19.223Z,69.11
2023-01-08T09:24:21.745Z,69.28
2023-01-08T09:25:23.912Z,69.39
2023-01-08T09:26:28.663Z,69.12
2023-01-08T09:27:30.879Z,68.35
2023-01-08T09:28:33.494Z,68.26
2023-01-08T09:29:35.703Z,67.91
2023-01-08T09:30:38.813Z,67.55
2023-01-08T09:31:41.209Z,67.30
2023-01-08T09:32:43.663Z,67.16
2023-01-08T09:33:48.376Z,67.09
2023-01-08T09:34:50.935Z,67.15
2023-01-08T09:35:53.136Z,66.93
2023-01-08T09:36:55.330Z,66.49
2023-01-08T09:37:57.887Z,66.23
2023-01-08T09:39:00.914Z,66.37
2023-01-08T09:40:03.559Z,66.66
2023-01-08T09:41:10.440Z,66.91
2023-01-08T09:42:13.703Z,66.86
2023-01-08T09:43:19.463Z,66.36
2023-01-08T09:44:26.633Z,66.25
2023-01-08T09:45:32.491Z,66.19
2023-01-08T09:46:34.870Z,65.95
2023-01-08T09:47:41.087Z,66.37
2023-01-08T09:48:43.506Z,66.54
2023-01-08T09:49:48.088Z,66.69
2023-01-08T09:50:50.407Z,66.89
2023-01-08T09:51:52.621Z,66.79
2023-01-08T09:52:55.090Z,66.96
2023-01-08T09:53:58.216Z,67.08
2023-01-08T09:55:01.460Z,67.05
2023-01-08T09:56:11.163Z,66.89
2023-01-08T09:57:16.449Z,66.77
2023-01-08T09:58:33.610Z,66.67
2023-01-08T09:59:36.238Z,66.73
2023-01-08T10:00:38.624Z,66.66
2023-01-08T10:01:41.606Z,66.82
2023-01-08T10:02:44.673Z,67.16
2023-01-08T10:04:12.111Z,67.00
2023-01-08T10:05:17.556Z,67.15
2023-01-08T10:06:20.056Z,67.00
2023-01-08T10:07:25.380Z,66.95
2023-01-08T10:08:27.592Z,66.95
2023-01-08T10:09:32.528Z,66.90
2023-01-08T10:10:37.091Z,66.87
2023-01-08T10:11:47.270Z,66.43
2023-01-08T10:12:50.526Z,66.55
2023-01-08T10:13:55.155Z,66.55
2023-01-08T10:15:02.247Z,66.45
2023-01-08T10:16:10.545Z,66.35
2023-01-08T10:17:27.446Z,66.03
2023-01-08T10:18:30.190Z,66.18
2023-01-08T10:19:32.375Z,66.35
2023-01-08T10:20:34.653Z,66.09
2023-01-08T10:21:40.482Z,66.17
2023-01-08T10:22:42.949Z,66.11
2023-01-08T10:23:53.598Z,66.11
2023-01-08T10:25:08.443Z,66.11
2023-01-08T10:26:11.037Z,66.17
2023-01-08T10:27:16.853Z,66.08
2023-01-08T10:28:22.377Z,66.01
2023-01-08T10:29:25.382Z,65.75
2023-01-08T10:30:37.235Z,65.62
2023-01-08T10:31:47.517Z,65.62
2023-01-08T10:32:54.512Z,65.85
2023-01-08T10:33:57.361Z,65.73
2023-01-08T10:35:05.559Z,65.88
2023-01-08T10:36:10.540Z,65.56
2023-01-08T10:37:42.607Z,65.44
2023-01-08T10:39:02.345Z,65.38
2023-01-08T10:40:26.669Z,65.48
2023-01-08T10:41:29.835Z,65.82
2023-01-08T10:42:35.216Z,65.64
2023-01-08T10:43:54.380Z,65.64
2023-01-08T10:45:01.608Z,65.57
2023-01-08T10:46:07.642Z,65.36
2023-01-08T10:47:18.353Z,65.93
2023-01-08T10:48:20.815Z,65.97
2023-01-08T10:49:42.047Z,65.72
2023-01-08T10:50:44.268Z,65.80
2023-01-08T10:51:51.745Z,65.42
2023-01-08T10:52:56.796Z,65.33
2023-01-08T10:54:02.171Z,65.34
2023-01-08T10:55:25.010Z,64.78
2023-01-08T10:56:40.235Z,64.86
2023-01-08T10:57:52.321Z,64.64
2023-01-08T10:58:55.817Z,64.77
2023-01-08T10:59:58.381Z,64.92
2023-01-08T11:01:12.940Z,64.71
2023-01-08T11:02:38.319Z,64.84
2023-01-08T11:03:42.249Z,65.18
2023-01-08T11:04:51.568Z,64.99
2023-01-08T11:05:53.906Z,64.67
2023-01-08T11:06:59.968Z,64.51
2023-01-08T11:08:07.095Z,64.55
2023-01-08T11:09:23.175Z,64.80
2023-01-08T11:10:27.422Z,65.03
2023-01-08T11:11:37.745Z,64.90
2023-01-08T11:12:41.737Z,64.76
2023-01-08T11:14:22.673Z,64.74
2023-01-08T11:15:39.550Z,64.75
2023-01-08T11:16:42.899Z,64.83
2023-01-08T11:17:46.249Z,64.60
2023-01-08T11:18:50.847Z,64.88
2023-01-08T11:19:55.766Z,64.98
2023-01-08T11:21:10.821Z,64.34
2023-01-08T11:22:33.878Z,64.06
2023-01-08T11:23:36.674Z,64.41
2023-01-08T11:24:40.305Z,64.26
2023-01-08T11:25:51.880Z,64.12
2023-01-08T11:27:06.240Z,63.85
2023-01-08T11:28:15.964Z,63.99
2023-01-08T11:29:24.578Z,63.87
2023-01-08T11:30:32.564Z,64.37
2023-01-08T11:31:52.941Z,64.26
2023-01-08T11:33:04.631Z,63.86
2023-01-08T11:34:22.161Z,63.82
2023-01-08T11:35:38.365Z,63.93
2023-01-08T11:36:52.592Z,64.11
2023-01-08T11:38:00.056Z,64.11
2023-01-08T11:39:02.693Z,63.93
2023-01-08T11:40:14.832Z,64.02
2023-01-08T11:41:25.876Z,64.31
2023-01-08T11:42:47.818Z,64.28
2023-01-08T11:44:14.926Z,64.23
2023-01-08T11:45:34.062Z,64.13
2023-01-08T11:46:45.673Z,63.93
2023-01-08T11:48:17.964Z,63.82
2023-01-08T11:49:47.594Z,63.74
2023-01-08T11:51:05.030Z,64.35
2023-01-08T11:52:12.905Z,64.34
2023-01-08T11:53:23.543Z,64.53
2023-01-08T11:54:49.455Z,64.54
2023-01-08T11:56:09.453Z,64.70
2023-01-08T11:57:20.548Z,64.67
2023-01-08T11:58:32.242Z,65.23
2023-01-08T12:00:02.633Z,64.90
2023-01-08T12:01:07.721Z,64.88
2023-01-08T12:02:24.949Z,64.63
2023-01-08T12:04:05.880Z,64.81
2023-01-08T12:05:26.229Z,64.54
2023-01-08T12:07:03.413Z,64.61
2023-01-08T12:08:27.522Z,65.06
2023-01-08T12:09:42.243Z,64.92
2023-01-08T12:11:00.133Z,64.83
2023-01-08T12:12:27.047Z,64.40
2023-01-08T12:13:50.351Z,64.21
2023-01-08T12:15:04.732Z,64.16
2023-01-08T12:16:24.761Z,64.61
2023-01-08T12:17:44.115Z,64.61
2023-01-08T12:19:03.471Z,64.72
2023-01-08T12:20:27.388Z,64.14
2023-01-08T12:21:39.086Z,64.41
2023-01-08T12:22:47.295Z,64.31
2023-01-08T12:24:32.288Z,64.55
2023-01-08T12:25:48.663Z,64.71
2023-01-08T12:27:16.134Z,64.50
2023-01-08T12:28:39.744Z,64.26
2023-01-08T12:30:09.508Z,64.54
2023-01-08T12:31:25.650Z,64.51
2023-01-08T12:32:36.293Z,64.58
2023-01-08T12:33:44.713Z,64.34
2023-01-08T12:34:46.822Z,64.38
2023-01-08T12:35:54.327Z,64.61
2023-01-08T12:37:06.709Z,64.53
2023-01-08T12:38:19.046Z,64.85
2023-01-08T12:39:28.087Z,64.81
2023-01-08T12:40:36.165Z,65.04
2023-01-08T12:41:41.058Z,64.57
2023-01-08T12:42:50.286Z,64.58
2023-01-08T12:44:00.615Z,64.70
2023-01-08T12:45:05.754Z,65.18
2023-01-08T12:46:14.019Z,65.37
2023-01-08T12:47:22.321Z,65.57
2023-01-08T12:48:28.457Z,65.64
2023-01-08T12:49:47.547Z,65.99
2023-01-08T12:51:04.993Z,66.04
2023-01-08T12:52:28.545Z,65.72
2023-01-08T12:53:48.260Z,65.43
2023-01-08T12:55:00.491Z,65.22
2023-01-08T12:56:17.302Z,65.47
2023-01-08T12:57:32.051Z,65.38
2023-01-08T12:59:38.979Z,65.42
2023-01-08T13:01:01.480Z,65.56
2023-01-08T13:02:53.454Z,66.24
2023-01-08T13:03:58.790Z,66.11
2023-01-08T13:05:14.472Z,66.15
2023-01-08T13:06:19.509Z,66.17
2023-01-08T13:07:27.203Z,66.02
2023-01-08T13:08:37.183Z,66.08
2023-01-08T13:09:39.560Z,65.82
2023-01-08T13:10:50.247Z,65.52
2023-01-08T13:11:53.684Z,65.31
2023-01-08T13:12:57.574Z,64.84
2023-01-08T13:14:11.789Z,64.83
2023-01-08T13:15:22.414Z,64.69
2023-01-08T13:16:25.461Z,64.70
2023-01-08T13:17:28.935Z,64.71
2023-01-08T13:18:31.242Z,64.75
2023-01-08T13:19:45.294Z,64.90
2023-01-08T13:20:58.315Z,64.73
2023-01-08T13:22:01.029Z,64.63
2023-01-08T13:23:05.556Z,64.54
2023-01-08T13:24:34.815Z,64.65
2023-01-08T13:25:38.304Z,64.79
2023-01-08T13:26:40.475Z,64.67
2023-01-08T13:27:43.407Z,64.77
2023-01-08T13:28:46.256Z,64.67
2023-01-08T13:29:51.293Z,64.38
2023-01-08T13:30:55.840Z,64.68
2023-01-08T13:31:58.369Z,65.01
2023-01-08T13:33:01.115Z,65.01
2023-01-08T13:34:03.336Z,64.79
2023-01-08T13:35:08.671Z,64.80
2023-01-08T13:36:13.831Z,64.62
2023-01-08T13:37:27.925Z,64.56
2023-01-08T13:38:30.653Z,64.53
2023-01-08T13:39:37.607Z,64.66
2023-01-08T13:40:42.847Z,64.78
2023-01-08T13:41:57.136Z,64.70
2023-01-08T13:43:00.293Z,64.67
2023-01-08T13:44:28.882Z,65.24
2023-01-08T13:45:31.962Z,65.13
2023-01-08T13:46:37.958Z,65.08
2023-01-08T13:47:43.792Z,65.17
2023-01-08T13:49:00.190Z,64.92
2023-01-08T13:50:20.883Z,65.46
2023-01-08T13:51:38.312Z,65.88
2023-01-08T13:52:46.240Z,65.76
2023-01-08T13:53:48.694Z,65.82
2023-01-08T13:54:51.756Z,65.96
2023-01-08T13:56:05.331Z,65.52
2023-01-08T13:57:15.298Z,65.61
2023-01-08T13:58:38.224Z,65.88
2023-01-08T13:59:49.224Z,66.25
2023-01-08T14:00:52.620Z,66.08
2023-01-08T14:01:55.971Z,66.36
2023-01-08T14:02:58.727Z,66.84
2023-01-08T14:04:00.912Z,66.64
2023-01-08T14:05:19.107Z,66.79
2023-01-08T14:06:26.826Z,66.96
2023-01-08T14:07:29.486Z,67.37
2023-01-08T14:08:31.857Z,67.50
2023-01-08T14:09:34.775Z,67.74
2023-01-08T14:10:37.060Z,67.75
2023-01-08T14:11:44.512Z,67.93